sensor_id;sensor_type;location;lat;lon;timestamp;P1;durP1;ratioP1;P2;durP2;ratioP2
3337;SDS011;1682;49.286;10.788;2024-02-26T00:02:40;2.47;;;2.27;;
3337;SDS011;1682;49.286;10.788;2024-02-26T00:05:28;4.50;;;2.90;;
3337;SDS011;1682;49.286;10.788;2024-02-26T00:08:16;7.80;;;5.40;;
3337;SDS011;1682;49.286;10.788;2024-02-26T00:11:04;2.30;;;2.10;;
3337;SDS011;1682;49.286;10.788;2024-02-26T00:13:53;3.53;;;3.10;;
3337;SDS011;1682;49.286;10.788;2024-02-26T00:16:40;16.00;;;8.90;;
3337;SDS011;1682;49.286;10.788;2024-02-26T00:19:28;9.20;;;6.07;;
3337;SDS011;1682;49.286;10.788;2024-02-26T00:22:15;4.00;;;3.60;;
3337;SDS011;1682;49.286;10.788;2024-02-26T00:25:03;3.63;;;2.73;;
3337;SDS011;1682;49.286;10.788;2024-02-26T00:27:51;2.40;;;2.20;;
3337;SDS011;1682;49.286;10.788;2024-02-26T00:30:40;3.23;;;2.13;;
3337;SDS011;1682;49.286;10.788;2024-02-26T00:33:27;3.83;;;3.10;;
3337;SDS011;1682;49.286;10.788;2024-02-26T00:36:15;3.43;;;3.13;;
3337;SDS011;1682;49.286;10.788;2024-02-26T00:39:03;5.60;;;3.60;;
3337;SDS011;1682;49.286;10.788;2024-02-26T00:41:51;16.50;;;8.30;;
3337;SDS011;1682;49.286;10.788;2024-02-26T00:44:39;5.17;;;4.30;;
3337;SDS011;1682;49.286;10.788;2024-02-26T00:47:28;3.40;;;2.90;;
3337;SDS011;1682;49.286;10.788;2024-02-26T00:50:15;3.93;;;3.63;;
3337;SDS011;1682;49.286;10.788;2024-02-26T00:53:03;2.90;;;2.70;;
3337;SDS011;1682;49.286;10.788;2024-02-26T00:55:51;3.60;;;2.50;;
3337;SDS011;1682;49.286;10.788;2024-02-26T00:58:38;3.83;;;3.50;;
3337;SDS011;1682;49.286;10.788;2024-02-26T01:01:26;4.23;;;3.40;;
3337;SDS011;1682;49.286;10.788;2024-02-26T01:04:15;2.83;;;2.60;;
3337;SDS011;1682;49.286;10.788;2024-02-26T01:07:02;2.20;;;2.00;;
3337;SDS011;1682;49.286;10.788;2024-02-26T01:09:50;4.80;;;3.10;;
3337;SDS011;1682;49.286;10.788;2024-02-26T01:12:37;1.90;;;1.80;;
3337;SDS011;1682;49.286;10.788;2024-02-26T01:15:25;2.10;;;1.90;;
3337;SDS011;1682;49.286;10.788;2024-02-26T01:18:12;8.57;;;3.10;;
3337;SDS011;1682;49.286;10.788;2024-02-26T01:21:01;9.73;;;4.13;;
3337;SDS011;1682;49.286;10.788;2024-02-26T01:23:50;4.77;;;3.83;;
3337;SDS011;1682;49.286;10.788;2024-02-26T01:26:37;7.27;;;2.83;;
3337;SDS011;1682;49.286;10.788;2024-02-26T01:29:24;3.60;;;3.33;;
3337;SDS011;1682;49.286;10.788;2024-02-26T01:32:12;3.00;;;2.53;;
3337;SDS011;1682;49.286;10.788;2024-02-26T01:34:59;6.10;;;3.60;;
3337;SDS011;1682;49.286;10.788;2024-02-26T01:37:50;5.60;;;2.70;;
3337;SDS011;1682;49.286;10.788;2024-02-26T01:40:37;1.93;;;1.80;;
3337;SDS011;1682;49.286;10.788;2024-02-26T01:43:25;17.37;;;6.50;;
3337;SDS011;1682;49.286;10.788;2024-02-26T01:46:12;6.97;;;4.77;;
3337;SDS011;1682;49.286;10.788;2024-02-26T01:49:00;6.97;;;5.30;;
3337;SDS011;1682;49.286;10.788;2024-02-26T01:51:48;4.00;;;3.07;;
3337;SDS011;1682;49.286;10.788;2024-02-26T01:54:37;2.90;;;2.70;;
3337;SDS011;1682;49.286;10.788;2024-02-26T01:57:26;4.33;;;2.50;;
3337;SDS011;1682;49.286;10.788;2024-02-26T02:00:14;5.00;;;2.93;;
3337;SDS011;1682;49.286;10.788;2024-02-26T02:03:02;3.50;;;2.50;;
3337;SDS011;1682;49.286;10.788;2024-02-26T02:05:50;6.30;;;2.40;;
3337;SDS011;1682;49.286;10.788;2024-02-26T02:08:38;3.20;;;2.90;;
3337;SDS011;1682;49.286;10.788;2024-02-26T02:11:27;2.93;;;2.63;;
3337;SDS011;1682;49.286;10.788;2024-02-26T02:14:15;7.00;;;3.30;;
3337;SDS011;1682;49.286;10.788;2024-02-26T02:17:02;3.63;;;2.73;;
3337;SDS011;1682;49.286;10.788;2024-02-26T02:19:50;3.67;;;3.30;;
3337;SDS011;1682;49.286;10.788;2024-02-26T02:22:39;5.23;;;3.37;;
3337;SDS011;1682;49.286;10.788;2024-02-26T02:25:27;5.97;;;3.07;;
3337;SDS011;1682;49.286;10.788;2024-02-26T02:28:14;6.63;;;4.30;;
3337;SDS011;1682;49.286;10.788;2024-02-26T02:31:02;5.10;;;2.90;;
3337;SDS011;1682;49.286;10.788;2024-02-26T02:33:50;10.70;;;5.73;;
3337;SDS011;1682;49.286;10.788;2024-02-26T02:36:48;9.40;;;4.57;;
3337;SDS011;1682;49.286;10.788;2024-02-26T02:39:36;4.97;;;3.70;;
3337;SDS011;1682;49.286;10.788;2024-02-26T02:42:24;8.73;;;5.23;;
3337;SDS011;1682;49.286;10.788;2024-02-26T02:45:11;6.03;;;3.63;;
3337;SDS011;1682;49.286;10.788;2024-02-26T02:47:59;9.67;;;5.77;;
3337;SDS011;1682;49.286;10.788;2024-02-26T02:50:46;8.67;;;4.60;;
3337;SDS011;1682;49.286;10.788;2024-02-26T02:53:34;5.80;;;4.43;;
3337;SDS011;1682;49.286;10.788;2024-02-26T02:56:23;13.53;;;6.23;;
3337;SDS011;1682;49.286;10.788;2024-02-26T02:59:10;8.33;;;6.77;;
3337;SDS011;1682;49.286;10.788;2024-02-26T03:01:58;9.90;;;3.73;;
3337;SDS011;1682;49.286;10.788;2024-02-26T03:04:45;5.33;;;4.80;;
3337;SDS011;1682;49.286;10.788;2024-02-26T03:07:33;7.27;;;6.67;;
3337;SDS011;1682;49.286;10.788;2024-02-26T03:10:20;9.30;;;7.03;;
3337;SDS011;1682;49.286;10.788;2024-02-26T03:13:09;7.93;;;4.40;;
3337;SDS011;1682;49.286;10.788;2024-02-26T03:15:57;5.87;;;4.63;;
3337;SDS011;1682;49.286;10.788;2024-02-26T03:18:44;4.77;;;3.90;;
3337;SDS011;1682;49.286;10.788;2024-02-26T03:21:32;9.47;;;5.33;;
3337;SDS011;1682;49.286;10.788;2024-02-26T03:24:19;6.03;;;4.80;;
3337;SDS011;1682;49.286;10.788;2024-02-26T03:27:07;10.50;;;3.80;;
3337;SDS011;1682;49.286;10.788;2024-02-26T03:29:56;6.50;;;3.73;;
3337;SDS011;1682;49.286;10.788;2024-02-26T03:32:43;5.00;;;4.60;;
3337;SDS011;1682;49.286;10.788;2024-02-26T03:35:32;5.27;;;4.70;;
3337;SDS011;1682;49.286;10.788;2024-02-26T03:38:19;4.30;;;3.90;;
3337;SDS011;1682;49.286;10.788;2024-02-26T03:41:07;8.47;;;4.97;;
3337;SDS011;1682;49.286;10.788;2024-02-26T03:43:54;7.83;;;3.90;;
3337;SDS011;1682;49.286;10.788;2024-02-26T03:46:43;8.73;;;4.23;;
3337;SDS011;1682;49.286;10.788;2024-02-26T03:49:31;10.40;;;5.00;;
3337;SDS011;1682;49.286;10.788;2024-02-26T03:52:18;7.60;;;5.53;;
3337;SDS011;1682;49.286;10.788;2024-02-26T03:55:06;8.43;;;5.47;;
3337;SDS011;1682;49.286;10.788;2024-02-26T03:57:54;6.07;;;4.57;;
3337;SDS011;1682;49.286;10.788;2024-02-26T04:00:42;8.90;;;6.10;;
3337;SDS011;1682;49.286;10.788;2024-02-26T04:03:31;7.70;;;5.83;;
3337;SDS011;1682;49.286;10.788;2024-02-26T04:06:18;6.87;;;4.67;;
3337;SDS011;1682;49.286;10.788;2024-02-26T04:09:06;5.37;;;4.60;;
3337;SDS011;1682;49.286;10.788;2024-02-26T04:11:55;13.20;;;4.80;;
3337;SDS011;1682;49.286;10.788;2024-02-26T04:14:43;6.33;;;4.47;;
3337;SDS011;1682;49.286;10.788;2024-02-26T04:17:31;8.60;;;5.50;;
3337;SDS011;1682;49.286;10.788;2024-02-26T04:20:19;10.67;;;5.80;;
3337;SDS011;1682;49.286;10.788;2024-02-26T04:23:07;8.53;;;7.10;;
3337;SDS011;1682;49.286;10.788;2024-02-26T04:25:54;5.90;;;5.30;;
3337;SDS011;1682;49.286;10.788;2024-02-26T04:28:42;6.17;;;5.40;;
3337;SDS011;1682;49.286;10.788;2024-02-26T04:31:29;6.10;;;4.90;;
3337;SDS011;1682;49.286;10.788;2024-02-26T04:34:18;6.30;;;5.43;;
3337;SDS011;1682;49.286;10.788;2024-02-26T04:37:07;6.97;;;5.07;;
3337;SDS011;1682;49.286;10.788;2024-02-26T04:39:54;6.53;;;5.07;;
3337;SDS011;1682;49.286;10.788;2024-02-26T04:42:42;7.90;;;5.93;;
3337;SDS011;1682;49.286;10.788;2024-02-26T04:45:29;6.63;;;5.00;;
3337;SDS011;1682;49.286;10.788;2024-02-26T04:48:17;15.50;;;6.07;;
3337;SDS011;1682;49.286;10.788;2024-02-26T04:51:04;7.83;;;4.53;;
3337;SDS011;1682;49.286;10.788;2024-02-26T04:53:53;9.23;;;6.43;;
3337;SDS011;1682;49.286;10.788;2024-02-26T04:56:41;12.33;;;6.70;;
3337;SDS011;1682;49.286;10.788;2024-02-26T04:59:29;13.50;;;8.80;;
3337;SDS011;1682;49.286;10.788;2024-02-26T05:02:17;11.70;;;7.83;;
3337;SDS011;1682;49.286;10.788;2024-02-26T05:05:04;13.50;;;8.77;;
3337;SDS011;1682;49.286;10.788;2024-02-26T05:07:52;9.97;;;8.30;;
3337;SDS011;1682;49.286;10.788;2024-02-26T05:10:40;8.20;;;6.33;;
3337;SDS011;1682;49.286;10.788;2024-02-26T05:13:28;11.23;;;6.40;;
3337;SDS011;1682;49.286;10.788;2024-02-26T05:16:16;10.03;;;6.20;;
3337;SDS011;1682;49.286;10.788;2024-02-26T05:19:05;12.83;;;7.27;;
3337;SDS011;1682;49.286;10.788;2024-02-26T05:21:53;9.57;;;5.77;;
3337;SDS011;1682;49.286;10.788;2024-02-26T05:24:40;8.30;;;6.00;;
3337;SDS011;1682;49.286;10.788;2024-02-26T05:27:29;9.27;;;6.53;;
3337;SDS011;1682;49.286;10.788;2024-02-26T05:30:17;9.53;;;5.67;;
3337;SDS011;1682;49.286;10.788;2024-02-26T05:33:04;7.70;;;5.30;;
3337;SDS011;1682;49.286;10.788;2024-02-26T05:35:52;7.40;;;5.10;;
3337;SDS011;1682;49.286;10.788;2024-02-26T05:38:39;8.73;;;6.50;;
3337;SDS011;1682;49.286;10.788;2024-02-26T05:41:27;17.50;;;12.30;;
3337;SDS011;1682;49.286;10.788;2024-02-26T05:44:16;10.27;;;6.80;;
3337;SDS011;1682;49.286;10.788;2024-02-26T05:47:03;16.97;;;11.40;;
3337;SDS011;1682;49.286;10.788;2024-02-26T05:49:51;12.80;;;8.87;;
3337;SDS011;1682;49.286;10.788;2024-02-26T05:52:38;9.17;;;6.57;;
3337;SDS011;1682;49.286;10.788;2024-02-26T05:55:26;32.17;;;15.43;;
3337;SDS011;1682;49.286;10.788;2024-02-26T05:58:14;17.87;;;12.20;;
3337;SDS011;1682;49.286;10.788;2024-02-26T06:01:03;8.40;;;5.90;;
3337;SDS011;1682;49.286;10.788;2024-02-26T06:03:50;9.37;;;6.60;;
3337;SDS011;1682;49.286;10.788;2024-02-26T06:06:38;12.10;;;8.63;;
3337;SDS011;1682;49.286;10.788;2024-02-26T06:09:25;15.30;;;8.80;;
3337;SDS011;1682;49.286;10.788;2024-02-26T06:12:13;17.00;;;10.20;;
3337;SDS011;1682;49.286;10.788;2024-02-26T06:15:00;16.83;;;8.50;;
3337;SDS011;1682;49.286;10.788;2024-02-26T06:17:49;16.37;;;9.90;;
3337;SDS011;1682;49.286;10.788;2024-02-26T06:20:37;12.50;;;6.30;;
3337;SDS011;1682;49.286;10.788;2024-02-26T06:23:24;15.53;;;7.37;;
3337;SDS011;1682;49.286;10.788;2024-02-26T06:26:12;9.60;;;7.17;;
3337;SDS011;1682;49.286;10.788;2024-02-26T06:28:59;11.80;;;7.70;;
3337;SDS011;1682;49.286;10.788;2024-02-26T06:31:47;8.77;;;5.70;;
3337;SDS011;1682;49.286;10.788;2024-02-26T06:34:37;13.53;;;8.00;;
3337;SDS011;1682;49.286;10.788;2024-02-26T06:37:26;8.17;;;5.77;;
3337;SDS011;1682;49.286;10.788;2024-02-26T06:40:13;10.93;;;7.03;;
3337;SDS011;1682;49.286;10.788;2024-02-26T06:43:01;6.47;;;5.53;;
3337;SDS011;1682;49.286;10.788;2024-02-26T06:45:48;8.63;;;6.23;;
3337;SDS011;1682;49.286;10.788;2024-02-26T06:48:36;10.10;;;5.37;;
3337;SDS011;1682;49.286;10.788;2024-02-26T06:51:25;7.37;;;5.13;;
3337;SDS011;1682;49.286;10.788;2024-02-26T06:54:12;10.50;;;6.03;;
3337;SDS011;1682;49.286;10.788;2024-02-26T06:57:00;8.73;;;5.47;;
3337;SDS011;1682;49.286;10.788;2024-02-26T06:59:48;8.10;;;6.47;;
3337;SDS011;1682;49.286;10.788;2024-02-26T07:02:36;9.80;;;6.03;;
3337;SDS011;1682;49.286;10.788;2024-02-26T07:05:23;9.87;;;6.33;;
3337;SDS011;1682;49.286;10.788;2024-02-26T07:08:12;6.83;;;4.80;;
3337;SDS011;1682;49.286;10.788;2024-02-26T07:11:00;7.87;;;6.03;;
3337;SDS011;1682;49.286;10.788;2024-02-26T07:13:47;14.70;;;9.07;;
3337;SDS011;1682;49.286;10.788;2024-02-26T07:16:35;13.20;;;7.93;;
3337;SDS011;1682;49.286;10.788;2024-02-26T07:19:22;9.53;;;5.77;;
3337;SDS011;1682;49.286;10.788;2024-02-26T07:22:10;8.57;;;5.90;;
3337;SDS011;1682;49.286;10.788;2024-02-26T07:24:59;7.73;;;6.40;;
3337;SDS011;1682;49.286;10.788;2024-02-26T07:27:46;6.97;;;5.70;;
3337;SDS011;1682;49.286;10.788;2024-02-26T07:30:34;11.53;;;8.43;;
3337;SDS011;1682;49.286;10.788;2024-02-26T07:33:24;9.80;;;6.70;;
3337;SDS011;1682;49.286;10.788;2024-02-26T07:36:12;12.80;;;6.43;;
3337;SDS011;1682;49.286;10.788;2024-02-26T07:39:00;11.77;;;7.10;;
3337;SDS011;1682;49.286;10.788;2024-02-26T07:41:48;14.43;;;8.70;;
3337;SDS011;1682;49.286;10.788;2024-02-26T07:44:38;16.90;;;11.43;;
3337;SDS011;1682;49.286;10.788;2024-02-26T07:47:28;19.30;;;10.17;;
3337;SDS011;1682;49.286;10.788;2024-02-26T07:50:17;11.10;;;10.00;;
3337;SDS011;1682;49.286;10.788;2024-02-26T07:53:05;9.50;;;7.27;;
3337;SDS011;1682;49.286;10.788;2024-02-26T07:55:52;10.10;;;6.53;;
3337;SDS011;1682;49.286;10.788;2024-02-26T07:58:41;16.77;;;8.23;;
3337;SDS011;1682;49.286;10.788;2024-02-26T08:01:29;14.10;;;8.13;;
3337;SDS011;1682;49.286;10.788;2024-02-26T08:04:16;8.10;;;6.20;;
3337;SDS011;1682;49.286;10.788;2024-02-26T08:07:04;11.47;;;6.80;;
3337;SDS011;1682;49.286;10.788;2024-02-26T08:09:51;14.97;;;6.50;;
3337;SDS011;1682;49.286;10.788;2024-02-26T08:12:39;9.07;;;7.60;;
3337;SDS011;1682;49.286;10.788;2024-02-26T08:15:28;11.57;;;8.33;;
3337;SDS011;1682;49.286;10.788;2024-02-26T08:18:15;11.70;;;8.00;;
3337;SDS011;1682;49.286;10.788;2024-02-26T08:21:03;11.20;;;7.37;;
3337;SDS011;1682;49.286;10.788;2024-02-26T08:23:50;13.20;;;10.50;;
3337;SDS011;1682;49.286;10.788;2024-02-26T08:26:38;12.40;;;11.10;;
3337;SDS011;1682;49.286;10.788;2024-02-26T08:29:25;10.83;;;6.63;;
3337;SDS011;1682;49.286;10.788;2024-02-26T08:32:14;8.23;;;5.90;;
3337;SDS011;1682;49.286;10.788;2024-02-26T08:35:02;11.17;;;5.67;;
3337;SDS011;1682;49.286;10.788;2024-02-26T08:37:50;7.93;;;7.10;;
3337;SDS011;1682;49.286;10.788;2024-02-26T08:40:38;7.17;;;5.23;;
3337;SDS011;1682;49.286;10.788;2024-02-26T08:43:25;8.07;;;5.30;;
3337;SDS011;1682;49.286;10.788;2024-02-26T08:46:13;8.23;;;6.17;;
3337;SDS011;1682;49.286;10.788;2024-02-26T08:49:02;9.60;;;6.80;;
3337;SDS011;1682;49.286;10.788;2024-02-26T08:51:49;8.13;;;4.97;;
3337;SDS011;1682;49.286;10.788;2024-02-26T08:54:37;7.83;;;5.40;;
3337;SDS011;1682;49.286;10.788;2024-02-26T08:57:25;13.70;;;6.37;;
3337;SDS011;1682;49.286;10.788;2024-02-26T09:00:13;11.67;;;5.87;;
3337;SDS011;1682;49.286;10.788;2024-02-26T09:03:03;14.63;;;5.50;;
3337;SDS011;1682;49.286;10.788;2024-02-26T09:05:52;12.80;;;6.43;;
3337;SDS011;1682;49.286;10.788;2024-02-26T09:08:39;9.63;;;5.57;;
3337;SDS011;1682;49.286;10.788;2024-02-26T09:11:27;8.10;;;5.37;;
3337;SDS011;1682;49.286;10.788;2024-02-26T09:14:14;8.97;;;5.27;;
3337;SDS011;1682;49.286;10.788;2024-02-26T09:17:02;6.63;;;5.40;;
3337;SDS011;1682;49.286;10.788;2024-02-26T09:19:51;6.93;;;5.10;;
3337;SDS011;1682;49.286;10.788;2024-02-26T09:22:40;7.10;;;5.50;;
3337;SDS011;1682;49.286;10.788;2024-02-26T09:25:29;8.03;;;6.03;;
3337;SDS011;1682;49.286;10.788;2024-02-26T09:28:16;9.93;;;5.03;;
3337;SDS011;1682;49.286;10.788;2024-02-26T09:31:04;9.03;;;4.97;;
3337;SDS011;1682;49.286;10.788;2024-02-26T09:33:51;6.17;;;4.70;;
3337;SDS011;1682;49.286;10.788;2024-02-26T09:36:39;8.93;;;5.00;;
3337;SDS011;1682;49.286;10.788;2024-02-26T09:39:28;7.67;;;6.03;;
3337;SDS011;1682;49.286;10.788;2024-02-26T09:42:15;6.83;;;4.90;;
3337;SDS011;1682;49.286;10.788;2024-02-26T09:45:05;5.37;;;4.60;;
3337;SDS011;1682;49.286;10.788;2024-02-26T09:47:55;7.30;;;5.50;;
3337;SDS011;1682;49.286;10.788;2024-02-26T09:50:42;5.53;;;5.03;;
3337;SDS011;1682;49.286;10.788;2024-02-26T09:53:30;4.57;;;4.10;;
3337;SDS011;1682;49.286;10.788;2024-02-26T09:56:20;8.60;;;5.40;;
3337;SDS011;1682;49.286;10.788;2024-02-26T09:59:10;7.00;;;4.90;;
3337;SDS011;1682;49.286;10.788;2024-02-26T10:02:00;5.83;;;5.20;;
3337;SDS011;1682;49.286;10.788;2024-02-26T10:04:48;7.50;;;5.00;;
3337;SDS011;1682;49.286;10.788;2024-02-26T10:07:39;5.33;;;3.63;;
3337;SDS011;1682;49.286;10.788;2024-02-26T10:10:27;5.80;;;4.40;;
3337;SDS011;1682;49.286;10.788;2024-02-26T10:13:16;4.50;;;3.90;;
3337;SDS011;1682;49.286;10.788;2024-02-26T10:16:06;5.43;;;4.30;;
3337;SDS011;1682;49.286;10.788;2024-02-26T10:18:54;4.20;;;3.57;;
3337;SDS011;1682;49.286;10.788;2024-02-26T10:21:41;7.43;;;3.23;;
3337;SDS011;1682;49.286;10.788;2024-02-26T10:24:30;6.33;;;4.57;;
3337;SDS011;1682;49.286;10.788;2024-02-26T10:27:17;6.33;;;5.70;;
3337;SDS011;1682;49.286;10.788;2024-02-26T10:30:15;6.53;;;5.83;;
3337;SDS011;1682;49.286;10.788;2024-02-26T10:33:04;4.40;;;4.00;;
3337;SDS011;1682;49.286;10.788;2024-02-26T10:35:51;6.43;;;5.70;;
3337;SDS011;1682;49.286;10.788;2024-02-26T10:38:41;3.30;;;3.03;;
3337;SDS011;1682;49.286;10.788;2024-02-26T10:41:28;7.60;;;4.13;;
3337;SDS011;1682;49.286;10.788;2024-02-26T10:44:17;5.23;;;4.20;;
3337;SDS011;1682;49.286;10.788;2024-02-26T10:47:06;6.43;;;4.30;;
3337;SDS011;1682;49.286;10.788;2024-02-26T10:49:54;4.90;;;3.87;;
3337;SDS011;1682;49.286;10.788;2024-02-26T10:52:43;9.17;;;4.40;;
3337;SDS011;1682;49.286;10.788;2024-02-26T10:55:30;3.73;;;3.43;;
3337;SDS011;1682;49.286;10.788;2024-02-26T10:58:18;5.80;;;3.67;;
3337;SDS011;1682;49.286;10.788;2024-02-26T11:01:06;7.17;;;3.90;;
3337;SDS011;1682;49.286;10.788;2024-02-26T11:03:55;3.80;;;2.50;;
3337;SDS011;1682;49.286;10.788;2024-02-26T11:06:43;6.43;;;3.53;;
3337;SDS011;1682;49.286;10.788;2024-02-26T11:09:32;5.50;;;4.37;;
3337;SDS011;1682;49.286;10.788;2024-02-26T11:12:20;12.40;;;6.20;;
3337;SDS011;1682;49.286;10.788;2024-02-26T11:15:08;6.60;;;4.93;;
3337;SDS011;1682;49.286;10.788;2024-02-26T11:17:56;9.50;;;3.47;;
3337;SDS011;1682;49.286;10.788;2024-02-26T11:20:45;4.93;;;2.87;;
3337;SDS011;1682;49.286;10.788;2024-02-26T11:23:33;5.70;;;3.50;;
3337;SDS011;1682;49.286;10.788;2024-02-26T11:26:22;7.73;;;3.60;;
3337;SDS011;1682;49.286;10.788;2024-02-26T11:29:11;10.77;;;4.33;;
3337;SDS011;1682;49.286;10.788;2024-02-26T11:32:00;6.10;;;2.80;;
3337;SDS011;1682;49.286;10.788;2024-02-26T11:34:48;6.03;;;2.40;;
3337;SDS011;1682;49.286;10.788;2024-02-26T11:37:37;5.57;;;3.10;;
3337;SDS011;1682;49.286;10.788;2024-02-26T11:40:25;3.20;;;2.10;;
3337;SDS011;1682;49.286;10.788;2024-02-26T11:43:12;5.77;;;4.07;;
3337;SDS011;1682;49.286;10.788;2024-02-26T11:46:00;2.70;;;2.43;;
3337;SDS011;1682;49.286;10.788;2024-02-26T11:48:48;3.47;;;3.00;;
3337;SDS011;1682;49.286;10.788;2024-02-26T11:51:36;2.80;;;2.53;;
3337;SDS011;1682;49.286;10.788;2024-02-26T11:54:43;4.43;;;4.03;;
3337;SDS011;1682;49.286;10.788;2024-02-26T11:57:32;6.50;;;2.77;;
3337;SDS011;1682;49.286;10.788;2024-02-26T12:00:24;2.43;;;2.27;;
3337;SDS011;1682;49.286;10.788;2024-02-26T12:03:12;6.63;;;2.77;;
3337;SDS011;1682;49.286;10.788;2024-02-26T12:06:00;1.67;;;1.57;;
3337;SDS011;1682;49.286;10.788;2024-02-26T12:08:48;1.90;;;1.80;;
3337;SDS011;1682;49.286;10.788;2024-02-26T12:11:40;3.27;;;3.03;;
3337;SDS011;1682;49.286;10.788;2024-02-26T12:14:29;4.27;;;3.87;;
3337;SDS011;1682;49.286;10.788;2024-02-26T12:17:18;3.13;;;2.10;;
3337;SDS011;1682;49.286;10.788;2024-02-26T12:20:09;2.73;;;2.53;;
3337;SDS011;1682;49.286;10.788;2024-02-26T12:22:57;3.13;;;2.33;;
3337;SDS011;1682;49.286;10.788;2024-02-26T12:25:44;2.00;;;1.90;;
3337;SDS011;1682;49.286;10.788;2024-02-26T12:28:35;2.20;;;1.50;;
3337;SDS011;1682;49.286;10.788;2024-02-26T12:31:22;5.80;;;1.90;;
3337;SDS011;1682;49.286;10.788;2024-02-26T12:34:10;3.60;;;2.00;;
3337;SDS011;1682;49.286;10.788;2024-02-26T12:36:57;1.90;;;1.73;;
3337;SDS011;1682;49.286;10.788;2024-02-26T12:39:45;1.90;;;1.80;;
3337;SDS011;1682;49.286;10.788;2024-02-26T12:42:32;2.07;;;1.93;;
3337;SDS011;1682;49.286;10.788;2024-02-26T12:45:26;1.90;;;1.70;;
3337;SDS011;1682;49.286;10.788;2024-02-26T12:48:13;1.73;;;1.60;;
3337;SDS011;1682;49.286;10.788;2024-02-26T12:51:01;3.53;;;2.77;;
3337;SDS011;1682;49.286;10.788;2024-02-26T12:53:48;2.90;;;2.27;;
3337;SDS011;1682;49.286;10.788;2024-02-26T12:56:37;2.60;;;2.40;;
3337;SDS011;1682;49.286;10.788;2024-02-26T12:59:25;2.23;;;2.03;;
3337;SDS011;1682;49.286;10.788;2024-02-26T13:02:14;2.10;;;2.00;;
3337;SDS011;1682;49.286;10.788;2024-02-26T13:05:02;1.87;;;1.67;;
3337;SDS011;1682;49.286;10.788;2024-02-26T13:07:49;1.90;;;1.80;;
3337;SDS011;1682;49.286;10.788;2024-02-26T13:10:38;7.47;;;1.53;;
3337;SDS011;1682;49.286;10.788;2024-02-26T13:13:26;1.93;;;1.57;;
3337;SDS011;1682;49.286;10.788;2024-02-26T13:16:14;1.87;;;1.73;;
3337;SDS011;1682;49.286;10.788;2024-02-26T13:19:09;2.23;;;1.80;;
3337;SDS011;1682;49.286;10.788;2024-02-26T13:22:02;2.17;;;2.00;;
3337;SDS011;1682;49.286;10.788;2024-02-26T13:24:54;3.93;;;1.63;;
3337;SDS011;1682;49.286;10.788;2024-02-26T13:27:42;7.50;;;3.10;;
3337;SDS011;1682;49.286;10.788;2024-02-26T13:30:30;1.80;;;1.70;;
3337;SDS011;1682;49.286;10.788;2024-02-26T13:33:17;2.63;;;2.43;;
3337;SDS011;1682;49.286;10.788;2024-02-26T13:36:06;3.73;;;1.57;;
3337;SDS011;1682;49.286;10.788;2024-02-26T13:38:57;3.13;;;2.13;;
3337;SDS011;1682;49.286;10.788;2024-02-26T13:41:45;4.60;;;2.60;;
3337;SDS011;1682;49.286;10.788;2024-02-26T13:44:33;2.70;;;2.53;;
3337;SDS011;1682;49.286;10.788;2024-02-26T13:47:24;2.73;;;2.20;;
3337;SDS011;1682;49.286;10.788;2024-02-26T13:50:12;1.50;;;1.37;;
3337;SDS011;1682;49.286;10.788;2024-02-26T13:53:01;2.87;;;2.20;;
3337;SDS011;1682;49.286;10.788;2024-02-26T13:55:49;3.03;;;1.83;;
3337;SDS011;1682;49.286;10.788;2024-02-26T13:58:36;4.10;;;2.17;;
3337;SDS011;1682;49.286;10.788;2024-02-26T14:01:24;5.07;;;2.27;;
3337;SDS011;1682;49.286;10.788;2024-02-26T14:04:12;2.73;;;2.27;;
3337;SDS011;1682;49.286;10.788;2024-02-26T14:07:00;3.70;;;3.33;;
3337;SDS011;1682;49.286;10.788;2024-02-26T14:09:48;3.20;;;2.33;;
3337;SDS011;1682;49.286;10.788;2024-02-26T14:12:37;5.03;;;3.10;;
3337;SDS011;1682;49.286;10.788;2024-02-26T14:15:25;1.80;;;1.70;;
3337;SDS011;1682;49.286;10.788;2024-02-26T14:18:13;4.80;;;3.07;;
3337;SDS011;1682;49.286;10.788;2024-02-26T14:21:00;5.87;;;3.53;;
3337;SDS011;1682;49.286;10.788;2024-02-26T14:23:48;3.80;;;2.90;;
3337;SDS011;1682;49.286;10.788;2024-02-26T14:26:36;2.90;;;2.60;;
3337;SDS011;1682;49.286;10.788;2024-02-26T14:29:24;4.40;;;3.30;;
3337;SDS011;1682;49.286;10.788;2024-02-26T14:32:11;5.03;;;4.00;;
3337;SDS011;1682;49.286;10.788;2024-02-26T14:34:59;3.20;;;2.50;;
3337;SDS011;1682;49.286;10.788;2024-02-26T14:37:46;2.73;;;2.27;;
3337;SDS011;1682;49.286;10.788;2024-02-26T14:40:35;4.83;;;2.70;;
3337;SDS011;1682;49.286;10.788;2024-02-26T14:43:24;3.37;;;3.07;;
3337;SDS011;1682;49.286;10.788;2024-02-26T14:46:12;7.07;;;2.87;;
3337;SDS011;1682;49.286;10.788;2024-02-26T14:48:59;2.87;;;2.00;;
3337;SDS011;1682;49.286;10.788;2024-02-26T14:51:47;7.20;;;3.83;;
3337;SDS011;1682;49.286;10.788;2024-02-26T14:54:34;4.63;;;2.77;;
3337;SDS011;1682;49.286;10.788;2024-02-26T14:57:24;7.40;;;4.00;;
3337;SDS011;1682;49.286;10.788;2024-02-26T15:03:02;5.17;;;4.00;;
3337;SDS011;1682;49.286;10.788;2024-02-26T15:05:51;2.70;;;2.43;;
3337;SDS011;1682;49.286;10.788;2024-02-26T15:08:38;5.93;;;3.83;;
3337;SDS011;1682;49.286;10.788;2024-02-26T15:11:26;8.13;;;5.10;;
3337;SDS011;1682;49.286;10.788;2024-02-26T15:14:14;8.57;;;5.20;;
3337;SDS011;1682;49.286;10.788;2024-02-26T15:17:01;8.47;;;4.20;;
3337;SDS011;1682;49.286;10.788;2024-02-26T15:19:50;4.20;;;3.90;;
3337;SDS011;1682;49.286;10.788;2024-02-26T15:22:38;5.87;;;4.83;;
3337;SDS011;1682;49.286;10.788;2024-02-26T15:25:25;8.13;;;5.23;;
3337;SDS011;1682;49.286;10.788;2024-02-26T15:28:13;4.23;;;3.90;;
3337;SDS011;1682;49.286;10.788;2024-02-26T15:31:01;3.33;;;3.13;;
3337;SDS011;1682;49.286;10.788;2024-02-26T15:33:49;5.30;;;4.83;;
3337;SDS011;1682;49.286;10.788;2024-02-26T15:36:38;9.40;;;4.10;;
3337;SDS011;1682;49.286;10.788;2024-02-26T15:39:25;16.33;;;7.80;;
3337;SDS011;1682;49.286;10.788;2024-02-26T15:42:13;17.60;;;6.97;;
3337;SDS011;1682;49.286;10.788;2024-02-26T15:45:00;14.93;;;6.67;;
3337;SDS011;1682;49.286;10.788;2024-02-26T15:47:49;3.53;;;3.33;;
3337;SDS011;1682;49.286;10.788;2024-02-26T15:50:36;4.50;;;4.10;;
3337;SDS011;1682;49.286;10.788;2024-02-26T15:53:28;3.77;;;3.10;;
3337;SDS011;1682;49.286;10.788;2024-02-26T15:56:15;5.47;;;4.13;;
3337;SDS011;1682;49.286;10.788;2024-02-26T15:59:03;4.43;;;4.13;;
3337;SDS011;1682;49.286;10.788;2024-02-26T16:01:50;6.23;;;4.10;;
3337;SDS011;1682;49.286;10.788;2024-02-26T16:04:38;3.73;;;3.40;;
3337;SDS011;1682;49.286;10.788;2024-02-26T16:07:27;5.83;;;3.63;;
3337;SDS011;1682;49.286;10.788;2024-02-26T16:10:17;5.23;;;4.73;;
3337;SDS011;1682;49.286;10.788;2024-02-26T16:13:05;12.50;;;7.50;;
3337;SDS011;1682;49.286;10.788;2024-02-26T16:15:58;9.20;;;6.40;;
3337;SDS011;1682;49.286;10.788;2024-02-26T16:18:46;5.27;;;3.57;;
3337;SDS011;1682;49.286;10.788;2024-02-26T16:21:35;2.73;;;2.50;;
3337;SDS011;1682;49.286;10.788;2024-02-26T16:24:22;3.30;;;2.97;;
3337;SDS011;1682;49.286;10.788;2024-02-26T16:27:12;4.43;;;3.80;;
3337;SDS011;1682;49.286;10.788;2024-02-26T16:29:59;4.93;;;4.17;;
3337;SDS011;1682;49.286;10.788;2024-02-26T16:32:47;3.80;;;3.40;;
3337;SDS011;1682;49.286;10.788;2024-02-26T16:35:34;2.87;;;2.53;;
3337;SDS011;1682;49.286;10.788;2024-02-26T16:38:22;2.60;;;2.33;;
3337;SDS011;1682;49.286;10.788;2024-02-26T16:41:09;7.23;;;3.83;;
3337;SDS011;1682;49.286;10.788;2024-02-26T16:43:59;6.33;;;3.90;;
3337;SDS011;1682;49.286;10.788;2024-02-26T16:46:47;5.73;;;4.50;;
3337;SDS011;1682;49.286;10.788;2024-02-26T16:49:35;4.13;;;3.83;;
3337;SDS011;1682;49.286;10.788;2024-02-26T16:52:23;4.20;;;3.90;;
3337;SDS011;1682;49.286;10.788;2024-02-26T16:55:11;4.47;;;3.60;;
3337;SDS011;1682;49.286;10.788;2024-02-26T16:57:59;3.60;;;3.30;;
3337;SDS011;1682;49.286;10.788;2024-02-26T17:00:48;3.67;;;3.03;;
3337;SDS011;1682;49.286;10.788;2024-02-26T17:03:37;3.93;;;3.53;;
3337;SDS011;1682;49.286;10.788;2024-02-26T17:06:24;2.50;;;2.30;;
3337;SDS011;1682;49.286;10.788;2024-02-26T17:09:12;3.53;;;3.23;;